Time;durP1;ratioP1;P1;durP2;ratioP2;P2;SDS_P1;SDS_P2;PMS_P1;PMS_P2;Temp;Humidity;BMP_temperature;BMP_pressure;BME280_temperature;BME280_humidity;BME280_pressure;Samples;Min_cycle;Max_cycle;Signal;HPM_P1;HPM_P2
2021/12/28 00:01:49;;;;;;;;;;;17.90;99.90;;;;;;5075640;28;1913;-47
2021/12/28 00:04:15;;;;;;;;;;;17.80;99.90;;;;;;5077267;28;1137;-47
2021/12/28 00:06:41;;;;;;;;;;;17.70;99.90;;;;;;5076856;28;1010;-47
2021/12/28 00:09:08;;;;;;;;;;;17.70;99.90;;;;;;5077445;28;883;-47
2021/12/28 00:11:34;;;;;;;;;;;17.60;99.90;;;;;;5074099;28;1041;-47
2021/12/28 00:14:02;;;;;;;;;;;17.60;99.90;;;;;;5076976;28;1303;-47
2021/12/28 00:18:54;;;;;;;;;;;17.50;99.90;;;;;;5076548;28;1177;-47
2021/12/28 00:21:20;;;;;;;;;;;17.40;99.90;;;;;;5075765;28;1914;-46
2021/12/28 00:23:46;;;;;;;;;;;17.40;99.90;;;;;;5076998;28;885;-47
2021/12/28 00:26:13;;;;;;;;;;;17.40;99.90;;;;;;5076985;28;820;-47
2021/12/28 00:28:39;;;;;;;;;;;17.30;99.90;;;;;;5075259;28;1480;-47
2021/12/28 00:31:06;;;;;;;;;;;17.30;99.90;;;;;;5076630;28;1134;-46
2021/12/28 00:33:33;;;;;;;;;;;17.30;99.90;;;;;;5076385;28;1309;-47
2021/12/28 00:35:59;;;;;;;;;;;17.20;99.90;;;;;;5076299;28;1399;-47
2021/12/28 00:38:26;;;;;;;;;;;17.20;99.90;;;;;;5076157;28;1169;-46
2021/12/28 00:40:53;;;;;;;;;;;17.20;99.90;;;;;;5076790;28;864;-46
2021/12/28 00:43:19;;;;;;;;;;;17.10;99.90;;;;;;5076517;28;1898;-46
2021/12/28 00:45:46;;;;;;;;;;;17.10;99.90;;;;;;5074538;28;1111;-46
2021/12/28 00:48:12;;;;;;;;;;;17.10;99.90;;;;;;5079855;28;1106;-55
2021/12/28 00:50:38;;;;;;;;;;;17.00;99.90;;;;;;5079589;28;1469;-47
2021/12/28 00:53:05;;;;;;;;;;;17.00;99.90;;;;;;5088192;22;4025;-46
2021/12/28 00:55:31;;;;;;;;;;;16.90;99.90;;;;;;5090363;28;1515;-46
2021/12/28 00:57:57;;;;;;;;;;;16.90;99.90;;;;;;5070275;28;1228;-56
2021/12/28 01:00:27;;;;;;;;;;;16.90;99.90;;;;;;5069087;28;1184;-47
2021/12/28 01:02:53;;;;;;;;;;;16.90;99.90;;;;;;5077357;28;1914;-47
2021/12/28 01:05:20;;;;;;;;;;;16.80;99.90;;;;;;5075511;28;1276;-54
2021/12/28 01:07:46;;;;;;;;;;;16.80;99.90;;;;;;5075090;28;1271;-55
2021/12/28 01:10:17;;;;;;;;;;;16.80;99.90;;;;;;5075257;28;1666;-47
2021/12/28 01:12:44;;;;;;;;;;;16.80;99.90;;;;;;5076635;28;1326;-47
2021/12/28 01:15:13;;;;;;;;;;;16.70;99.90;;;;;;5076436;28;1455;-54
2021/12/28 01:17:40;;;;;;;;;;;16.70;99.90;;;;;;5075906;28;1020;-47
2021/12/28 01:20:10;;;;;;;;;;;16.70;99.90;;;;;;5075836;28;953;-47
2021/12/28 01:22:37;;;;;;;;;;;16.60;99.90;;;;;;5074321;28;1914;-46
2021/12/28 01:25:04;;;;;;;;;;;16.60;99.90;;;;;;5075042;28;880;-46
2021/12/28 01:27:30;;;;;;;;;;;16.60;99.90;;;;;;5075279;28;955;-46
2021/12/28 01:29:56;;;;;;;;;;;16.50;99.90;;;;;;5078876;28;868;-54
2021/12/28 01:32:22;;;;;;;;;;;16.50;99.90;;;;;;5075860;28;904;-54
2021/12/28 01:34:48;;;;;;;;;;;16.50;99.90;;;;;;5075910;28;843;-56
2021/12/28 01:37:14;;;;;;;;;;;16.50;99.90;;;;;;5075769;28;867;-56
2021/12/28 01:39:40;;;;;;;;;;;16.40;99.90;;;;;;5075724;28;944;-54
2021/12/28 01:42:12;;;;;;;;;;;16.40;99.90;;;;;;5075212;28;1902;-56
2021/12/28 01:44:40;;;;;;;;;;;16.40;99.90;;;;;;5076207;28;810;-54
2021/12/28 01:47:06;;;;;;;;;;;16.30;99.90;;;;;;5075401;28;841;-46
2021/12/28 01:49:32;;;;;;;;;;;16.30;99.90;;;;;;5076096;28;821;-46
2021/12/28 01:51:58;;;;;;;;;;;16.30;99.90;;;;;;5075524;28;1119;-46
2021/12/28 01:54:24;;;;;;;;;;;16.20;99.90;;;;;;5075808;28;869;-46
2021/12/28 01:56:50;;;;;;;;;;;16.10;99.90;;;;;;5075132;28;1004;-46
2021/12/28 01:59:18;;;;;;;;;;;16.10;99.90;;;;;;5076120;28;885;-54
2021/12/28 02:01:45;;;;;;;;;;;16.10;99.90;;;;;;5075233;28;1983;-54
2021/12/28 02:04:19;;;;;;;;;;;16.10;99.90;;;;;;5075175;28;882;-54
2021/12/28 02:06:47;;;;;;;;;;;16.10;99.90;;;;;;5074477;28;952;-55
2021/12/28 02:09:15;;;;;;;;;;;16.00;99.90;;;;;;5075585;28;868;-54
2021/12/28 02:11:42;;;;;;;;;;;16.00;99.90;;;;;;5075581;28;946;-54
2021/12/28 02:14:10;;;;;;;;;;;16.00;99.90;;;;;;5075334;28;813;-54
2021/12/28 02:16:37;;;;;;;;;;;16.00;99.90;;;;;;5056817;28;981;-54
2021/12/28 02:19:03;;;;;;;;;;;16.00;99.90;;;;;;5075119;28;900;-56
2021/12/28 02:21:33;;;;;;;;;;;15.90;99.90;;;;;;5075253;28;888;-55
2021/12/28 02:24:00;;;;;;;;;;;15.90;99.90;;;;;;5075012;28;868;-54
2021/12/28 02:26:26;;;;;;;;;;;15.90;99.90;;;;;;5075990;28;821;-46
2021/12/28 02:28:52;;;;;;;;;;;15.90;99.90;;;;;;5079385;28;869;-47
2021/12/28 02:31:18;;;;;;;;;;;15.80;99.90;;;;;;5075703;28;852;-55
2021/12/28 02:33:48;;;;;;;;;;;15.80;99.90;;;;;;5075189;28;843;-47
2021/12/28 02:36:15;;;;;;;;;;;15.80;99.90;;;;;;5074843;28;805;-47
2021/12/28 02:38:43;;;;;;;;;;;15.80;99.90;;;;;;5075587;28;794;-55
2021/12/28 02:41:10;;;;;;;;;;;15.80;99.90;;;;;;5075669;28;870;-55
2021/12/28 02:43:37;;;;;;;;;;;15.70;99.90;;;;;;5060114;28;1887;-59
2021/12/28 02:46:05;;;;;;;;;;;15.70;99.90;;;;;;5079145;28;801;-55
2021/12/28 02:48:32;;;;;;;;;;;15.70;99.90;;;;;;5078410;28;1265;-56
2021/12/28 02:51:04;;;;;;;;;;;15.70;99.90;;;;;;5078582;28;916;-56
2021/12/28 02:53:31;;;;;;;;;;;15.60;99.90;;;;;;5079277;28;1199;-47
2021/12/28 02:55:57;;;;;;;;;;;15.60;99.90;;;;;;5078649;28;820;-47
2021/12/28 02:58:26;;;;;;;;;;;15.60;99.90;;;;;;5080066;28;1289;-47
2021/12/28 03:00:55;;;;;;;;;;;15.50;99.90;;;;;;5078387;28;904;-55
2021/12/28 03:03:23;;;;;;;;;;;15.50;99.90;;;;;;5078549;28;1906;-55
2021/12/28 03:05:50;;;;;;;;;;;15.40;99.90;;;;;;5077254;28;944;-55
2021/12/28 03:08:19;;;;;;;;;;;15.40;99.90;;;;;;5078677;28;820;-55
2021/12/28 03:10:47;;;;;;;;;;;15.40;99.90;;;;;;5077391;28;959;-55
2021/12/28 03:13:17;;;;;;;;;;;15.40;99.90;;;;;;5078079;28;940;-56
2021/12/28 03:15:44;;;;;;;;;;;15.40;99.90;;;;;;5077759;28;1093;-55
2021/12/28 03:18:11;;;;;;;;;;;15.40;99.90;;;;;;5078223;28;844;-57
2021/12/28 03:20:38;;;;;;;;;;;15.40;99.90;;;;;;5078538;28;821;-56
2021/12/28 03:23:04;;;;;;;;;;;15.40;99.90;;;;;;5059913;28;1922;-55
2021/12/28 03:25:30;;;;;;;;;;;15.30;99.90;;;;;;5077354;28;959;-55
2021/12/28 03:27:57;;;;;;;;;;;15.30;99.90;;;;;;5077121;28;869;-55
2021/12/28 03:30:23;;;;;;;;;;;15.30;99.90;;;;;;5079404;28;956;-56
2021/12/28 03:32:51;;;;;;;;;;;15.30;99.90;;;;;;5077733;28;874;-55
2021/12/28 03:35:18;;;;;;;;;;;15.30;99.90;;;;;;5078008;28;860;-56
2021/12/28 03:37:44;;;;;;;;;;;15.20;99.90;;;;;;5077536;28;934;-48
2021/12/28 03:40:12;;;;;;;;;;;15.20;99.90;;;;;;5077901;28;828;-55
2021/12/28 03:42:39;;;;;;;;;;;15.20;99.90;;;;;;5059161;28;1910;-55
2021/12/28 03:45:06;;;;;;;;;;;15.20;99.90;;;;;;5077990;28;884;-55
2021/12/28 03:47:32;;;;;;;;;;;15.10;99.90;;;;;;5077520;28;880;-55
2021/12/28 03:49:58;;;;;;;;;;;15.10;99.90;;;;;;5077519;28;924;-55
2021/12/28 03:52:24;;;;;;;;;;;15.10;99.90;;;;;;5076897;28;1045;-55
2021/12/28 03:54:52;;;;;;;;;;;15.10;99.90;;;;;;5076841;28;849;-56
2021/12/28 03:57:19;;;;;;;;;;;15.10;99.90;;;;;;5077323;28;923;-55
2021/12/28 03:59:46;;;;;;;;;;;15.00;99.90;;;;;;5080612;28;841;-55
2021/12/28 04:02:13;;;;;;;;;;;15.10;99.90;;;;;;5077349;28;1906;-47
2021/12/28 04:04:39;;;;;;;;;;;15.00;99.90;;;;;;5076939;28;1003;-47
2021/12/28 04:07:08;;;;;;;;;;;15.00;99.90;;;;;;5076596;28;951;-55
2021/12/28 04:12:22;;;;;;;;;;;14.90;99.90;;;;;;5077339;28;824;-55
2021/12/28 04:14:48;;;;;;;;;;;14.80;99.90;;;;;;5076735;28;884;-47
2021/12/28 04:17:16;;;;;;;;;;;14.80;99.90;;;;;;5077349;28;857;-47
2021/12/28 04:19:42;;;;;;;;;;;14.80;99.90;;;;;;5059041;28;937;-47
2021/12/28 04:22:08;;;;;;;;;;;14.80;99.90;;;;;;5075869;28;1899;-55
2021/12/28 04:24:34;;;;;;;;;;;14.80;99.90;;;;;;5076510;28;829;-55
2021/12/28 04:27:00;;;;;;;;;;;14.80;99.90;;;;;;5076816;28;979;-55
2021/12/28 04:29:26;;;;;;;;;;;14.80;99.90;;;;;;5077088;28;1118;-55
2021/12/28 04:31:53;;;;;;;;;;;14.80;99.90;;;;;;5076810;28;817;-55
2021/12/28 04:34:20;;;;;;;;;;;14.80;99.90;;;;;;5076406;28;940;-56
2021/12/28 04:36:47;;;;;;;;;;;14.80;99.90;;;;;;5076649;28;856;-55
2021/12/28 04:39:15;;;;;;;;;;;14.70;99.90;;;;;;5076885;28;885;-55
2021/12/28 04:41:41;;;;;;;;;;;14.70;99.90;;;;;;5076525;28;797;-55
2021/12/28 04:44:09;;;;;;;;;;;14.70;99.90;;;;;;5076068;28;1906;-55
2021/12/28 04:46:35;;;;;;;;;;;14.70;99.90;;;;;;5076815;28;888;-55
2021/12/28 04:49:01;;;;;;;;;;;14.70;99.90;;;;;;5076367;28;841;-55
2021/12/28 04:51:27;;;;;;;;;;;14.70;99.90;;;;;;5076282;28;872;-55
2021/12/28 04:53:56;;;;;;;;;;;14.70;99.90;;;;;;5075769;28;1022;-55
2021/12/28 04:56:23;;;;;;;;;;;14.70;99.90;;;;;;5076597;28;865;-55
2021/12/28 04:58:50;;;;;;;;;;;14.70;99.90;;;;;;5077532;28;1416;-55
2021/12/28 05:01:16;;;;;;;;;;;14.60;99.90;;;;;;5075752;28;1037;-55
2021/12/28 05:03:43;;;;;;;;;;;14.60;99.90;;;;;;5076191;28;1909;-55
2021/12/28 05:06:09;;;;;;;;;;;14.60;99.90;;;;;;5075869;28;905;-56
2021/12/28 05:08:35;;;;;;;;;;;14.60;99.90;;;;;;5076206;28;1144;-55
2021/12/28 05:11:01;;;;;;;;;;;14.60;99.90;;;;;;5076243;28;804;-55
2021/12/28 05:13:27;;;;;;;;;;;14.60;99.90;;;;;;5075567;28;882;-55
2021/12/28 05:15:54;;;;;;;;;;;14.50;99.90;;;;;;5075954;28;1013;-55
2021/12/28 05:18:22;;;;;;;;;;;14.50;99.90;;;;;;5075824;28;857;-56
2021/12/28 05:20:49;;;;;;;;;;;14.40;99.90;;;;;;5076269;28;932;-55
2021/12/28 05:23:15;;;;;;;;;;;14.40;99.90;;;;;;5075802;28;1961;-56
2021/12/28 05:25:41;;;;;;;;;;;14.40;99.90;;;;;;5076040;28;801;-56
2021/12/28 05:28:07;;;;;;;;;;;14.40;99.90;;;;;;5076052;28;891;-55
2021/12/28 05:30:33;;;;;;;;;;;14.40;99.90;;;;;;5076569;28;809;-55
2021/12/28 05:32:59;;;;;;;;;;;14.40;99.90;;;;;;5075685;28;1136;-55
2021/12/28 05:35:27;;;;;;;;;;;14.40;99.90;;;;;;5075595;28;904;-56
2021/12/28 05:37:54;;;;;;;;;;;14.40;99.90;;;;;;5076027;28;880;-57
2021/12/28 05:40:21;;;;;;;;;;;14.40;99.90;;;;;;5076034;28;942;-55
2021/12/28 05:42:47;;;;;;;;;;;14.30;99.90;;;;;;5075801;28;1898;-55
2021/12/28 05:45:13;;;;;;;;;;;14.30;99.90;;;;;;5074762;28;863;-55
2021/12/28 05:47:39;;;;;;;;;;;14.30;99.90;;;;;;5075799;28;995;-55
2021/12/28 05:50:07;;;;;;;;;;;14.30;99.90;;;;;;5075367;28;777;-57
2021/12/28 05:52:33;;;;;;;;;;;14.30;99.90;;;;;;5074789;28;1044;-55
2021/12/28 05:54:59;;;;;;;;;;;14.30;99.90;;;;;;5075862;28;935;-56
2021/12/28 05:57:27;;;;;;;;;;;14.30;99.90;;;;;;5075702;28;864;-55
2021/12/28 05:59:54;;;;;;;;;;;14.30;99.90;;;;;;5076019;28;880;-56
2021/12/28 06:02:22;;;;;;;;;;;14.30;99.90;;;;;;5075815;28;1977;-57
2021/12/28 06:04:48;;;;;;;;;;;14.20;99.90;;;;;;5075863;28;794;-56
2021/12/28 06:07:14;;;;;;;;;;;14.20;99.90;;;;;;5075450;28;836;-55
2021/12/28 06:09:40;;;;;;;;;;;14.30;99.90;;;;;;5075035;28;853;-57
2021/12/28 06:12:06;;;;;;;;;;;14.20;99.90;;;;;;5075438;28;927;-55
2021/12/28 06:14:32;;;;;;;;;;;14.30;99.90;;;;;;5075170;28;906;-55
2021/12/28 06:16:58;;;;;;;;;;;14.30;99.90;;;;;;5077097;28;998;-55
2021/12/28 06:19:26;;;;;;;;;;;14.30;99.90;;;;;;5079582;28;1006;-55
2021/12/28 06:21:53;;;;;;;;;;;14.30;99.90;;;;;;5079376;28;899;-47
2021/12/28 06:24:20;;;;;;;;;;;14.40;99.90;;;;;;5079431;28;1906;-55
2021/12/28 06:26:46;;;;;;;;;;;14.40;99.90;;;;;;5078581;28;833;-47
2021/12/28 06:29:15;;;;;;;;;;;14.40;99.90;;;;;;5080183;28;1000;-46
2021/12/28 06:31:41;;;;;;;;;;;14.50;99.90;;;;;;5078985;28;825;-47
2021/12/28 06:34:07;;;;;;;;;;;14.60;99.90;;;;;;5079365;28;869;-47
2021/12/28 06:36:33;;;;;;;;;;;14.60;99.90;;;;;;5077496;28;1468;-46
2021/12/28 06:39:00;;;;;;;;;;;14.70;99.90;;;;;;5078910;28;876;-46
2021/12/28 06:41:26;;;;;;;;;;;14.70;99.90;;;;;;5078267;28;1155;-47
2021/12/28 06:43:55;;;;;;;;;;;14.70;99.90;;;;;;5078202;28;1967;-47
2021/12/28 06:46:22;;;;;;;;;;;14.80;99.90;;;;;;5060470;28;981;-47
2021/12/28 06:48:49;;;;;;;;;;;14.80;99.90;;;;;;5078472;28;876;-46
2021/12/28 06:51:15;;;;;;;;;;;14.80;99.90;;;;;;5077128;28;960;-47
2021/12/28 06:53:41;;;;;;;;;;;14.90;99.90;;;;;;5078511;28;1179;-47
2021/12/28 06:56:08;;;;;;;;;;;14.90;99.90;;;;;;5077499;28;1273;-55
2021/12/28 06:58:34;;;;;;;;;;;15.00;99.90;;;;;;5082103;28;903;-56
2021/12/28 07:01:00;;;;;;;;;;;15.00;99.90;;;;;;5078977;28;943;-55
2021/12/28 07:03:27;;;;;;;;;;;15.10;99.90;;;;;;5078011;28;1972;-56
2021/12/28 07:05:55;;;;;;;;;;;15.20;99.90;;;;;;5078126;28;948;-55
2021/12/28 07:08:20;;;;;;;;;;;15.20;99.90;;;;;;5078024;28;884;-55
2021/12/28 07:10:47;;;;;;;;;;;15.30;99.90;;;;;;5078423;28;888;-55
2021/12/28 07:13:13;;;;;;;;;;;15.40;99.90;;;;;;5078292;28;872;-55
2021/12/28 07:15:41;;;;;;;;;;;15.40;99.90;;;;;;5077900;28;1093;-55
2021/12/28 07:18:08;;;;;;;;;;;15.50;99.90;;;;;;5078221;28;869;-56
2021/12/28 07:20:36;;;;;;;;;;;15.60;99.90;;;;;;5077657;28;805;-55
2021/12/28 07:23:02;;;;;;;;;;;15.60;99.90;;;;;;5077678;28;1901;-55
2021/12/28 07:25:29;;;;;;;;;;;15.60;99.90;;;;;;5081278;28;797;-55
2021/12/28 07:27:55;;;;;;;;;;;15.70;99.90;;;;;;5078208;28;991;-55
2021/12/28 07:30:21;;;;;;;;;;;15.70;99.90;;;;;;5077871;28;827;-55
2021/12/28 07:32:47;;;;;;;;;;;15.80;99.90;;;;;;5078303;28;896;-55
2021/12/28 07:35:15;;;;;;;;;;;15.80;99.90;;;;;;5077951;28;885;-55
2021/12/28 07:37:42;;;;;;;;;;;15.90;99.90;;;;;;5076960;28;985;-55
2021/12/28 07:40:10;;;;;;;;;;;15.90;99.90;;;;;;5077017;28;863;-55
2021/12/28 07:42:39;;;;;;;;;;;15.90;99.90;;;;;;5056066;28;1959;-55
2021/12/28 07:45:09;;;;;;;;;;;15.90;99.90;;;;;;5056029;28;979;-55
2021/12/28 07:47:36;;;;;;;;;;;15.90;99.90;;;;;;5056192;28;891;-55
2021/12/28 07:50:03;;;;;;;;;;;16.00;99.90;;;;;;5056109;28;885;-55
2021/12/28 07:52:29;;;;;;;;;;;16.00;99.90;;;;;;5055781;28;1161;-55
2021/12/28 07:54:55;;;;;;;;;;;16.00;99.90;;;;;;5055464;28;852;-55
2021/12/28 07:57:21;;;;;;;;;;;16.00;99.90;;;;;;5055811;28;960;-55
2021/12/28 07:59:47;;;;;;;;;;;16.00;99.90;;;;;;5054977;28;891;-55
2021/12/28 08:02:14;;;;;;;;;;;16.00;99.90;;;;;;5055811;28;1054;-56
2021/12/28 08:04:41;;;;;;;;;;;16.00;99.90;;;;;;5055124;28;1906;-55
2021/12/28 08:07:09;;;;;;;;;;;16.00;99.90;;;;;;5055585;28;863;-54
2021/12/28 08:09:35;;;;;;;;;;;16.00;99.90;;;;;;5055743;28;847;-55
2021/12/28 08:12:01;;;;;;;;;;;16.10;99.90;;;;;;5021392;28;882;-55
2021/12/28 08:14:27;;;;;;;;;;;16.00;99.90;;;;;;5073951;28;1080;-47
2021/12/28 08:16:53;;;;;;;;;;;16.00;99.90;;;;;;5075953;28;1685;-47
2021/12/28 08:19:19;;;;;;;;;;;16.00;99.90;;;;;;5076653;28;821;-47
2021/12/28 08:21:46;;;;;;;;;;;16.00;99.90;;;;;;5076941;28;864;-46
2021/12/28 08:24:12;;;;;;;;;;;16.10;99.90;;;;;;5076559;28;1901;-47
2021/12/28 08:26:39;;;;;;;;;;;16.10;99.90;;;;;;5076416;28;1038;-47
2021/12/28 08:29:06;;;;;;;;;;;16.10;99.90;;;;;;5076359;28;796;-48
2021/12/28 08:31:33;;;;;;;;;;;16.10;99.90;;;;;;5076975;28;836;-47
2021/12/28 08:33:59;;;;;;;;;;;16.10;99.90;;;;;;5076300;28;870;-47
2021/12/28 08:36:25;;;;;;;;;;;16.20;99.90;;;;;;5076140;28;911;-47
2021/12/28 08:38:51;;;;;;;;;;;16.20;99.90;;;;;;5075997;28;876;-47
2021/12/28 08:41:17;;;;;;;;;;;16.20;99.90;;;;;;5076594;28;813;-47
2021/12/28 08:43:45;;;;;;;;;;;16.20;99.90;;;;;;5076532;28;1969;-47
2021/12/28 08:46:12;;;;;;;;;;;16.20;99.90;;;;;;5075914;28;1373;-47
2021/12/28 08:48:39;;;;;;;;;;;16.30;99.90;;;;;;5041604;28;985;-47
2021/12/28 08:51:05;;;;;;;;;;;16.30;99.90;;;;;;5076073;28;960;-47
2021/12/28 08:53:31;;;;;;;;;;;16.30;99.90;;;;;;5075900;28;1493;-47
2021/12/28 08:55:57;;;;;;;;;;;16.40;99.90;;;;;;5075968;28;905;-47
2021/12/28 08:58:23;;;;;;;;;;;16.40;99.90;;;;;;5075642;28;860;-47
2021/12/28 09:00:49;;;;;;;;;;;16.50;99.90;;;;;;5076158;28;809;-47
2021/12/28 09:03:17;;;;;;;;;;;16.50;99.90;;;;;;5075553;28;1906;-47
2021/12/28 09:05:43;;;;;;;;;;;16.60;99.90;;;;;;5070639;28;879;-47
2021/12/28 09:08:16;;;;;;;;;;;16.60;99.90;;;;;;5070725;28;1013;-47
2021/12/28 09:10:42;;;;;;;;;;;16.60;99.90;;;;;;5054544;28;981;-47
2021/12/28 09:13:09;;;;;;;;;;;16.60;99.90;;;;;;5054157;28;813;-47
2021/12/28 09:15:36;;;;;;;;;;;16.70;99.90;;;;;;5054738;28;978;-47
2021/12/28 09:18:02;;;;;;;;;;;16.70;99.90;;;;;;5054399;28;825;-47
2021/12/28 09:20:28;;;;;;;;;;;16.70;99.90;;;;;;5054513;28;896;-48
2021/12/28 09:22:56;;;;;;;;;;;16.70;99.90;;;;;;5053902;28;1972;-47
2021/12/28 09:25:22;;;;;;;;;;;16.70;99.90;;;;;;5037164;28;828;-55
2021/12/28 09:27:49;;;;;;;;;;;16.70;99.90;;;;;;5054406;28;951;-55
2021/12/28 09:30:17;;;;;;;;;;;16.70;99.90;;;;;;5053680;28;856;-54
2021/12/28 09:32:45;;;;;;;;;;;16.70;99.90;;;;;;5054230;28;865;-55
2021/12/28 09:35:12;;;;;;;;;;;16.70;99.90;;;;;;5054222;28;864;-55
2021/12/28 09:37:38;;;;;;;;;;;16.80;99.90;;;;;;5054076;28;889;-47
2021/12/28 09:40:06;;;;;;;;;;;16.80;99.90;;;;;;5053625;28;834;-47
2021/12/28 09:42:33;;;;;;;;;;;16.80;99.90;;;;;;5072392;28;899;-47
2021/12/28 09:44:59;;;;;;;;;;;16.80;99.90;;;;;;5075941;28;1902;-55
2021/12/28 09:47:25;;;;;;;;;;;16.80;99.90;;;;;;5075788;28;816;-55
2021/12/28 09:49:51;;;;;;;;;;;16.80;99.90;;;;;;5075562;28;835;-47
2021/12/28 09:52:19;;;;;;;;;;;16.80;99.90;;;;;;5077358;28;1037;-47
2021/12/28 09:54:46;;;;;;;;;;;16.80;99.90;;;;;;5079209;28;1139;-47
2021/12/28 09:57:17;;;;;;;;;;;16.80;99.90;;;;;;5061664;28;944;-47
2021/12/28 09:59:43;;;;;;;;;;;16.80;99.90;;;;;;5079203;28;971;-56
2021/12/28 10:02:10;;;;;;;;;;;16.80;99.90;;;;;;5079840;28;876;-47
2021/12/28 10:04:55;;;;;;;;;;;16.90;99.90;;;;;;5059432;28;1910;-47
2021/12/28 10:07:25;;;;;;;;;;;16.90;99.90;;;;;;5079803;28;901;-47
2021/12/28 10:09:53;;;;;;;;;;;16.90;99.90;;;;;;5079112;28;865;-48
2021/12/28 10:12:37;;;;;;;;;;;16.90;99.90;;;;;;5079606;28;880;-47
2021/12/28 10:15:09;;;;;;;;;;;16.90;99.90;;;;;;5078723;28;1026;-47
2021/12/28 10:17:35;;;;;;;;;;;16.80;99.90;;;;;;5079378;28;932;-55
2021/12/28 10:20:05;;;;;;;;;;;16.90;99.90;;;;;;5079349;28;879;-55
2021/12/28 10:22:33;;;;;;;;;;;16.90;99.90;;;;;;5079123;28;944;-55
2021/12/28 10:25:18;;;;;;;;;;;16.80;99.90;;;;;;5079368;28;1963;-55
2021/12/28 10:27:57;;;;;;;;;;;16.90;99.90;;;;;;5079139;28;876;-55
2021/12/28 10:30:31;;;;;;;;;;;16.90;99.90;;;;;;5079175;28;876;-55
2021/12/28 10:32:59;;;;;;;;;;;16.90;99.90;;;;;;5077637;28;1133;-55
2021/12/28 10:35:27;;;;;;;;;;;16.90;99.90;;;;;;5069286;28;1187;-56
2021/12/28 10:37:56;;;;;;;;;;;17.00;99.90;;;;;;5075849;28;1173;-55
2021/12/28 10:40:29;;;;;;;;;;;17.00;99.90;;;;;;5075542;28;1219;-47
2021/12/28 10:42:54;;;;;;;;;;;17.10;99.90;;;;;;5072856;28;1968;-55
2021/12/28 10:45:40;;;;;;;;;;;17.10;99.90;;;;;;5077605;28;1248;-48
2021/12/28 10:48:15;;;;;;;;;;;17.10;99.90;;;;;;5075582;28;1457;-47
2021/12/28 10:50:41;;;;;;;;;;;17.10;99.90;;;;;;5071189;28;1554;-47
2021/12/28 10:53:12;;;;;;;;;;;17.10;99.90;;;;;;5070346;28;1370;-55
2021/12/28 10:55:42;;;;;;;;;;;17.20;99.90;;;;;;5051474;28;1620;-55
2021/12/28 10:58:11;;;;;;;;;;;17.20;99.90;;;;;;5076171;28;1438;-55
2021/12/28 11:00:38;;;;;;;;;;;17.20;99.90;;;;;;5076563;28;876;-55
2021/12/28 11:03:14;;;;;;;;;;;17.30;99.90;;;;;;5073755;28;1909;-56
2021/12/28 11:05:41;;;;;;;;;;;17.30;99.90;;;;;;5076107;28;1693;-55
2021/12/28 11:08:07;;;;;;;;;;;17.30;99.90;;;;;;5071491;28;1241;-55
2021/12/28 11:10:34;;;;;;;;;;;17.30;99.90;;;;;;5075124;28;1447;-56
2021/12/28 11:13:00;;;;;;;;;;;17.30;99.90;;;;;;5074715;28;1372;-55
2021/12/28 11:15:26;;;;;;;;;;;17.30;99.90;;;;;;5070486;28;1422;-55
2021/12/28 11:17:53;;;;;;;;;;;17.30;99.90;;;;;;5072569;28;1446;-57
2021/12/28 11:20:30;;;;;;;;;;;17.30;99.90;;;;;;5074445;28;1299;-55
2021/12/28 11:23:09;;;;;;;;;;;17.40;99.90;;;;;;5071697;28;1969;-55
2021/12/28 11:25:35;;;;;;;;;;;17.40;99.90;;;;;;5075972;28;903;-55
2021/12/28 11:28:33;;;;;;;;;;;17.40;99.90;;;;;;5072200;28;1161;-47
2021/12/28 11:31:02;;;;;;;;;;;17.50;99.90;;;;;;5055753;28;1392;-47
2021/12/28 11:33:41;;;;;;;;;;;17.50;99.90;;;;;;5055820;28;1409;-47
2021/12/28 11:36:07;;;;;;;;;;;17.50;99.90;;;;;;5036722;28;1242;-47
2021/12/28 11:38:34;;;;;;;;;;;17.50;99.90;;;;;;5056151;28;1245;-47
2021/12/28 11:41:00;;;;;;;;;;;17.50;99.90;;;;;;5056305;28;961;-56
2021/12/28 11:43:27;;;;;;;;;;;17.50;99.90;;;;;;5056149;28;1914;-56
2021/12/28 11:45:54;;;;;;;;;;;17.50;99.90;;;;;;5056076;28;889;-55
2021/12/28 11:48:22;;;;;;;;;;;17.50;99.90;;;;;;5055786;28;987;-54
2021/12/28 11:50:49;;;;;;;;;;;17.50;99.90;;;;;;5026206;28;1155;-55
2021/12/28 11:53:15;;;;;;;;;;;17.50;99.90;;;;;;5055763;28;1217;-47
2021/12/28 11:55:43;;;;;;;;;;;17.50;99.90;;;;;;5054802;28;998;-47
2021/12/28 11:58:13;;;;;;;;;;;17.50;99.90;;;;;;5055020;28;1487;-47
2021/12/28 12:00:43;;;;;;;;;;;17.50;99.90;;;;;;5055779;28;975;-47
2021/12/28 12:03:33;;;;;;;;;;;17.50;99.90;;;;;;5055745;28;1971;-47
2021/12/28 12:05:59;;;;;;;;;;;17.50;99.90;;;;;;5051056;28;1259;-54
2021/12/28 12:08:26;;;;;;;;;;;17.50;99.90;;;;;;5076799;28;864;-54
2021/12/28 12:11:01;;;;;;;;;;;17.50;99.90;;;;;;5077081;28;821;-54
2021/12/28 12:13:29;;;;;;;;;;;17.50;99.90;;;;;;5076766;28;861;-55
2021/12/28 12:16:14;;;;;;;;;;;17.50;99.90;;;;;;5075353;28;876;-54
2021/12/28 12:18:44;;;;;;;;;;;17.50;99.90;;;;;;5077209;28;852;-54
2021/12/28 12:21:15;;;;;;;;;;;17.50;99.90;;;;;;5075016;28;1393;-54
2021/12/28 12:23:59;;;;;;;;;;;17.50;99.90;;;;;;5076487;28;1922;-55
2021/12/28 12:26:32;;;;;;;;;;;17.50;99.90;;;;;;5076985;28;853;-55
2021/12/28 12:29:01;;;;;;;;;;;17.50;99.90;;;;;;5076910;28;801;-55
2021/12/28 12:31:37;;;;;;;;;;;17.60;99.90;;;;;;5076679;28;982;-54
2021/12/28 12:34:05;;;;;;;;;;;17.60;99.90;;;;;;5075822;28;988;-54
2021/12/28 12:36:37;;;;;;;;;;;17.60;99.90;;;;;;5076874;28;899;-47
2021/12/28 12:39:04;;;;;;;;;;;17.60;99.90;;;;;;5076319;28;981;-47
2021/12/28 12:41:44;;;;;;;;;;;17.60;99.90;;;;;;5076646;28;888;-47
2021/12/28 12:44:12;;;;;;;;;;;17.60;99.90;;;;;;5076000;28;1959;-54
2021/12/28 12:46:40;;;;;;;;;;;17.60;99.90;;;;;;5076465;28;897;-54
2021/12/28 12:49:08;;;;;;;;;;;17.60;99.90;;;;;;5076430;28;864;-56
2021/12/28 12:51:34;;;;;;;;;;;17.60;99.90;;;;;;5076780;28;825;-54
2021/12/28 12:54:06;;;;;;;;;;;17.70;99.90;;;;;;5076249;28;1004;-47
2021/12/28 12:56:34;;;;;;;;;;;17.60;99.90;;;;;;5076666;28;825;-47
2021/12/28 12:59:05;;;;;;;;;;;17.70;99.90;;;;;;5076561;28;890;-47
2021/12/28 13:01:40;;;;;;;;;;;17.70;99.90;;;;;;5075044;28;1241;-47
2021/12/28 13:04:29;;;;;;;;;;;17.70;99.90;;;;;;5076241;28;1906;-47
2021/12/28 13:07:01;;;;;;;;;;;17.70;99.90;;;;;;5076179;28;936;-47
2021/12/28 13:09:27;;;;;;;;;;;17.70;99.90;;;;;;5076230;28;826;-54
2021/12/28 13:11:53;;;;;;;;;;;17.70;99.90;;;;;;5076131;28;895;-54
2021/12/28 13:14:20;;;;;;;;;;;17.70;99.90;;;;;;5075096;28;1098;-54
2021/12/28 13:16:59;;;;;;;;;;;17.70;99.90;;;;;;5074686;28;1062;-47
2021/12/28 13:19:26;;;;;;;;;;;17.70;99.90;;;;;;5072805;28;1057;-55
2021/12/28 13:21:55;;;;;;;;;;;17.70;99.90;;;;;;5072063;28;1101;-47
2021/12/28 13:24:21;;;;;;;;;;;17.70;99.90;;;;;;5065997;28;1887;-47
2021/12/28 13:26:49;;;;;;;;;;;17.70;99.90;;;;;;5075162;28;1194;-47
2021/12/28 13:29:24;;;;;;;;;;;17.70;99.90;;;;;;5067092;28;1197;-55
2021/12/28 13:31:50;;;;;;;;;;;17.70;99.90;;;;;;5072791;28;1297;-47
2021/12/28 13:34:16;;;;;;;;;;;17.70;99.90;;;;;;5071572;28;1364;-47
2021/12/28 13:36:53;;;;;;;;;;;17.70;99.90;;;;;;5088706;28;1278;-55
2021/12/28 13:39:19;;;;;;;;;;;17.70;99.90;;;;;;5075180;28;1257;-54
2021/12/28 13:41:49;;;;;;;;;;;17.80;99.90;;;;;;5075505;28;1309;-47
2021/12/28 13:44:15;;;;;;;;;;;17.70;99.90;;;;;;5068940;28;1957;-47
2021/12/28 13:46:41;;;;;;;;;;;17.60;99.90;;;;;;5069389;28;1417;-54
2021/12/28 13:49:09;;;;;;;;;;;17.60;99.90;;;;;;5074948;28;1356;-56
2021/12/28 13:51:35;;;;;;;;;;;17.70;99.90;;;;;;5072438;28;1336;-47
2021/12/28 13:54:04;;;;;;;;;;;17.70;99.90;;;;;;5066299;28;1269;-56
2021/12/28 13:56:36;;;;;;;;;;;17.70;99.90;;;;;;5071320;28;1367;-56
2021/12/28 13:59:13;;;;;;;;;;;17.70;99.90;;;;;;5069040;28;1113;-47
2021/12/28 14:01:43;;;;;;;;;;;17.70;99.90;;;;;;5069471;28;1395;-47
2021/12/28 14:04:12;;;;;;;;;;;17.70;99.90;;;;;;5074522;28;1910;-47
2021/12/28 14:06:40;;;;;;;;;;;17.70;99.90;;;;;;5074358;28;1198;-47
2021/12/28 14:09:12;;;;;;;;;;;17.70;99.90;;;;;;5075492;28;835;-47
2021/12/28 14:11:39;;;;;;;;;;;17.70;99.90;;;;;;5075097;28;971;-55
2021/12/28 14:14:12;;;;;;;;;;;17.80;99.90;;;;;;5073766;28;1788;-55
2021/12/28 14:17:05;;;;;;;;;;;17.70;99.90;;;;;;5071825;28;1499;-54
2021/12/28 14:19:36;;;;;;;;;;;17.70;99.90;;;;;;5071638;28;1629;-55
2021/12/28 14:22:07;;;;;;;;;;;17.80;99.90;;;;;;5073586;28;1268;-47
2021/12/28 14:24:33;;;;;;;;;;;17.80;99.90;;;;;;5074011;28;1909;-47
2021/12/28 14:27:00;;;;;;;;;;;17.80;99.90;;;;;;5072118;28;1225;-55
2021/12/28 14:29:27;;;;;;;;;;;17.80;99.90;;;;;;5069319;28;1194;-56
2021/12/28 14:31:55;;;;;;;;;;;17.80;99.90;;;;;;5072870;28;1268;-55
2021/12/28 14:34:34;;;;;;;;;;;17.80;99.90;;;;;;5069575;28;1113;-57
2021/12/28 14:37:06;;;;;;;;;;;17.80;99.90;;;;;;5075259;28;1017;-55
2021/12/28 14:39:34;;;;;;;;;;;17.80;99.90;;;;;;5076209;28;1169;-55
2021/12/28 14:42:08;;;;;;;;;;;17.80;99.90;;;;;;5073747;28;1327;-47
2021/12/28 14:44:35;;;;;;;;;;;17.80;99.90;;;;;;5073003;28;1909;-47
2021/12/28 14:47:12;;;;;;;;;;;17.80;99.90;;;;;;5073255;28;1189;-55
2021/12/28 14:49:38;;;;;;;;;;;17.80;99.90;;;;;;5072403;28;1149;-55